createdAt,value
2019-03-30T00:01:07.295Z,101987.55
2019-03-30T00:03:37.396Z,101986.60
2019-03-30T00:06:07.452Z,101982.94
2019-03-30T00:08:37.558Z,101986.27
2019-03-30T00:11:07.614Z,101976.37
2019-03-30T00:13:37.683Z,101980.55
2019-03-30T00:16:07.737Z,101976.21
2019-03-30T00:18:41.100Z,101973.83
2019-03-30T00:21:09.589Z,101972.84
2019-03-30T00:23:39.650Z,101971.80
2019-03-30T00:26:09.749Z,101970.62
2019-03-30T00:28:39.815Z,101963.36
2019-03-30T00:31:09.909Z,101965.58
2019-03-30T00:33:39.968Z,101968.95
2019-03-30T00:36:10.066Z,101965.11
2019-03-30T00:38:40.126Z,101967.67
2019-03-30T00:41:10.209Z,101961.21
2019-03-30T00:43:40.296Z,101955.70
2019-03-30T00:46:10.403Z,101953.45
2019-03-30T00:48:40.468Z,101961.27
2019-03-30T00:51:10.544Z,101957.20
2019-03-30T00:53:40.635Z,101952.80
2019-03-30T00:56:10.864Z,101947.08
2019-03-30T00:58:40.874Z,101948.34
2019-03-30T01:01:11.042Z,101946.20
2019-03-30T01:03:41.111Z,101942.84
2019-03-30T01:06:11.201Z,101946.27
2019-03-30T01:08:41.257Z,101948.34
2019-03-30T01:11:11.351Z,101947.30
2019-03-30T01:13:41.414Z,101948.44
2019-03-30T01:16:11.509Z,101946.77
2019-03-30T01:18:41.644Z,101941.14
2019-03-30T01:21:11.714Z,101937.47
2019-03-30T01:23:41.845Z,101938.57
2019-03-30T01:26:11.998Z,101939.34
2019-03-30T01:28:42.057Z,101934.64
2019-03-30T01:31:12.115Z,101930.30
2019-03-30T01:33:42.194Z,101923.05
2019-03-30T01:36:12.262Z,101914.63
2019-03-30T01:38:42.329Z,101916.05
2019-03-30T01:41:12.407Z,101917.83
2019-03-30T01:43:43.444Z,101911.41
2019-03-30T01:46:13.523Z,101910.94
2019-03-30T01:48:44.660Z,101909.82
2019-03-30T01:51:15.571Z,101905.34
2019-03-30T01:53:45.633Z,101907.89
2019-03-30T01:56:15.743Z,101897.21
2019-03-30T01:58:45.800Z,101906.55
2019-03-30T02:01:15.885Z,101906.11
2019-03-30T02:03:45.943Z,101898.31
2019-03-30T02:06:16.042Z,101893.17
2019-03-30T02:08:46.092Z,101891.93
2019-03-30T02:11:16.192Z,101894.45
2019-03-30T02:13:46.257Z,101885.77
2019-03-30T02:16:16.355Z,101885.70
2019-03-30T02:18:46.505Z,101883.88
2019-03-30T02:21:16.638Z,101883.95
2019-03-30T02:23:46.728Z,101880.13
2019-03-30T02:26:16.792Z,101881.45
2019-03-30T02:28:46.875Z,101878.38
2019-03-30T02:31:16.925Z,101878.45
2019-03-30T02:33:47.080Z,101882.09
2019-03-30T02:36:17.219Z,101876.92
2019-03-30T02:38:47.384Z,101879.40
2019-03-30T02:41:17.478Z,101876.92
2019-03-30T02:43:47.566Z,101874.52
2019-03-30T02:46:17.627Z,101878.23
2019-03-30T02:48:47.724Z,101871.71
2019-03-30T02:51:17.810Z,101869.05
2019-03-30T02:53:47.885Z,101869.52
2019-03-30T02:56:17.990Z,101864.42
2019-03-30T02:58:48.075Z,101860.13
2019-03-30T03:01:18.136Z,101861.73
2019-03-30T03:03:48.221Z,101865.55
2019-03-30T03:06:18.319Z,101860.13
2019-03-30T03:08:48.400Z,101853.67
2019-03-30T03:11:18.451Z,101857.21
2019-03-30T03:13:48.532Z,101852.47
2019-03-30T03:16:18.589Z,101849.45
2019-03-30T03:18:48.684Z,101844.75
2019-03-30T03:21:18.749Z,101838.78
2019-03-30T03:23:48.841Z,101841.40
2019-03-30T03:26:19.397Z,101843.08
2019-03-30T03:28:49.452Z,101834.08
2019-03-30T03:31:19.562Z,101829.92
2019-03-30T03:33:49.775Z,101831.27
2019-03-30T03:36:19.857Z,101823.19
2019-03-30T03:38:49.930Z,101829.34
2019-03-30T03:41:19.999Z,101819.80
2019-03-30T03:43:50.063Z,101812.92
2019-03-30T03:46:20.127Z,101817.14
2019-03-30T03:48:50.204Z,101814.52
2019-03-30T03:51:26.137Z,101810.30
2019-03-30T03:53:52.880Z,101806.36
2019-03-30T03:56:25.249Z,101806.69
2019-03-30T03:58:57.525Z,101805.02
2019-03-30T04:01:28.389Z,101804.07
2019-03-30T04:03:58.528Z,101797.47
2019-03-30T04:06:28.987Z,101792.23
2019-03-30T04:09:00.438Z,101794.27
2019-03-30T04:11:32.248Z,101788.03
2019-03-30T04:14:05.003Z,101782.47
2019-03-30T04:16:35.065Z,101777.98
2019-03-30T04:19:05.158Z,101774.85
2019-03-30T04:21:43.594Z,101771.91
2019-03-30T04:24:06.996Z,101771.14
2019-03-30T04:26:37.063Z,101765.64
2019-03-30T04:29:07.129Z,101763.57
2019-03-30T04:31:37.191Z,101758.59
2019-03-30T04:34:07.262Z,101761.83
2019-03-30T04:36:37.327Z,101762.59
2019-03-30T04:39:08.474Z,101765.61
2019-03-30T04:41:38.547Z,101762.59
2019-03-30T04:44:08.632Z,101760.91
2019-03-30T04:46:39.668Z,101757.12
2019-03-30T04:49:09.765Z,101757.59
2019-03-30T04:51:39.834Z,101751.16
2019-03-30T04:54:09.918Z,101753.70
2019-03-30T04:56:39.995Z,101744.67
2019-03-30T04:59:11.116Z,101747.91
2019-03-30T05:01:41.222Z,101747.37
2019-03-30T05:04:11.281Z,101748.13
2019-03-30T05:06:41.370Z,101747.25
2019-03-30T05:09:11.424Z,101752.89
2019-03-30T05:11:41.511Z,101752.27
2019-03-30T05:14:11.575Z,101750.00
2019-03-30T05:16:41.674Z,101747.30
2019-03-30T05:19:11.720Z,101745.70
2019-03-30T05:21:41.881Z,101752.88
2019-03-30T05:24:11.943Z,101751.27
2019-03-30T05:26:41.996Z,101744.47
2019-03-30T05:29:12.063Z,101750.52
2019-03-30T05:31:42.130Z,101744.22
2019-03-30T05:34:12.199Z,101744.84
2019-03-30T05:36:42.277Z,101745.58
2019-03-30T05:39:12.349Z,101747.04
2019-03-30T05:41:42.415Z,101745.55
2019-03-30T05:44:12.494Z,101748.39
2019-03-30T05:46:42.551Z,101754.80
2019-03-30T05:49:12.625Z,101755.86
2019-03-30T05:51:42.699Z,101753.92
2019-03-30T05:54:12.773Z,101751.27
2019-03-30T05:56:42.853Z,101750.34
2019-03-30T05:59:12.965Z,101749.61
2019-03-30T06:01:43.035Z,101752.34
2019-03-30T06:04:13.136Z,101752.23
2019-03-30T06:06:43.206Z,101753.28
2019-03-30T06:09:13.297Z,101751.64
2019-03-30T06:11:43.377Z,101746.15
2019-03-30T06:14:13.468Z,101748.45
2019-03-30T06:16:43.535Z,101751.79
2019-03-30T06:19:13.599Z,101742.40
2019-03-30T06:21:43.680Z,101746.50
2019-03-30T06:24:13.742Z,101745.52
2019-03-30T06:26:43.840Z,101740.19
2019-03-30T06:29:13.946Z,101741.80
2019-03-30T06:31:46.660Z,101739.41
2019-03-30T06:34:16.798Z,101733.80
2019-03-30T06:36:46.861Z,101731.47
2019-03-30T06:39:17.938Z,101730.86
2019-03-30T06:41:48.016Z,101728.22
2019-03-30T06:44:18.116Z,101729.00
2019-03-30T06:46:48.172Z,101725.95
2019-03-30T06:49:18.289Z,101726.38
2019-03-30T06:51:48.369Z,101728.93
2019-03-30T06:54:18.462Z,101721.16
2019-03-30T06:56:48.525Z,101727.47
2019-03-30T06:59:18.698Z,101722.80
2019-03-30T07:01:48.800Z,101723.55
2019-03-30T07:04:18.959Z,101719.58
2019-03-30T07:06:49.322Z,101708.81
2019-03-30T07:09:21.407Z,101708.28
2019-03-30T07:11:51.592Z,101707.78
2019-03-30T07:14:23.127Z,101712.69
2019-03-30T07:16:55.406Z,101704.31
2019-03-30T07:19:27.102Z,101703.64
2019-03-30T07:21:57.222Z,101699.34
2019-03-30T07:24:27.309Z,101709.32
2019-03-30T07:26:57.456Z,101708.63
2019-03-30T07:29:27.582Z,101709.77
2019-03-30T07:31:57.646Z,101707.11
2019-03-30T07:34:27.752Z,101707.80
2019-03-30T07:36:57.818Z,101705.98
2019-03-30T07:39:29.016Z,101707.06
2019-03-30T07:41:59.097Z,101699.50
2019-03-30T07:44:29.224Z,101697.20
2019-03-30T07:46:59.360Z,101699.97
2019-03-30T07:49:29.432Z,101698.57
2019-03-30T07:51:59.514Z,101694.94
2019-03-30T07:54:29.751Z,101701.95
2019-03-30T07:57:06.170Z,101701.79
2019-03-30T07:59:31.601Z,101696.18
2019-03-30T08:02:01.703Z,101692.02
2019-03-30T08:04:31.764Z,101689.31
2019-03-30T08:07:01.919Z,101691.84
2019-03-30T08:09:31.991Z,101689.59
2019-03-30T08:12:02.101Z,101689.12
2019-03-30T08:14:32.154Z,101686.23
2019-03-30T08:17:02.255Z,101686.80
2019-03-30T08:19:32.319Z,101687.47
2019-03-30T08:22:02.393Z,101691.05
2019-03-30T08:24:32.481Z,101690.02
2019-03-30T08:27:02.596Z,101687.23
2019-03-30T08:29:32.677Z,101683.81
2019-03-30T08:32:02.812Z,101687.48
2019-03-30T08:34:33.975Z,101693.16
2019-03-30T08:37:04.035Z,101694.23
2019-03-30T08:39:34.162Z,101692.15
2019-03-30T08:42:04.239Z,101691.93
2019-03-30T08:44:34.327Z,101689.58
2019-03-30T08:47:04.445Z,101684.93
2019-03-30T08:49:34.549Z,101686.40
2019-03-30T08:52:04.642Z,101688.23
2019-03-30T08:54:34.765Z,101681.45
2019-03-30T08:57:04.969Z,101681.95
2019-03-30T08:59:35.112Z,101682.81
2019-03-30T09:02:05.163Z,101684.66
2019-03-30T09:04:35.250Z,101685.94
2019-03-30T09:07:05.606Z,101689.16
2019-03-30T09:09:35.713Z,101683.30
2019-03-30T09:12:05.781Z,101682.59
2019-03-30T09:14:35.846Z,101680.94
2019-03-30T09:17:05.954Z,101674.20
2019-03-30T09:19:36.032Z,101679.02
2019-03-30T09:22:06.097Z,101678.29
2019-03-30T09:24:36.171Z,101680.92
2019-03-30T09:27:06.240Z,101674.14
2019-03-30T09:29:36.343Z,101676.80
2019-03-30T09:32:14.296Z,101672.66
2019-03-30T09:34:38.266Z,101664.56
2019-03-30T09:37:08.370Z,101657.36
2019-03-30T09:39:38.438Z,101656.17
2019-03-30T09:42:08.553Z,101655.79
2019-03-30T09:44:38.627Z,101658.02
2019-03-30T09:47:08.769Z,101646.47
2019-03-30T09:49:38.942Z,101642.26
2019-03-30T09:52:09.102Z,101638.89
2019-03-30T09:54:39.191Z,101629.92
2019-03-30T09:57:10.240Z,101633.41
2019-03-30T09:59:40.465Z,101627.84
2019-03-30T10:02:10.575Z,101621.85
2019-03-30T10:04:41.067Z,101621.88
2019-03-30T10:07:11.122Z,101613.27
2019-03-30T10:09:41.186Z,101615.95
2019-03-30T10:12:11.276Z,101609.97
2019-03-30T10:14:41.332Z,101605.69
2019-03-30T10:17:11.443Z,101606.16
2019-03-30T10:19:41.594Z,101604.89
2019-03-30T10:22:11.666Z,101604.52
2019-03-30T10:24:41.777Z,101602.84
2019-03-30T10:27:11.819Z,101597.22
2019-03-30T10:29:41.929Z,101597.27
2019-03-30T10:32:12.011Z,101598.14
2019-03-30T10:34:42.074Z,101599.89
2019-03-30T10:37:12.223Z,101594.36
2019-03-30T10:39:42.300Z,101593.06
2019-03-30T10:42:12.409Z,101593.97
2019-03-30T10:44:42.519Z,101590.55
2019-03-30T10:47:12.662Z,101581.94
2019-03-30T10:49:42.720Z,101584.96
2019-03-30T10:52:12.902Z,101577.66
2019-03-30T10:54:52.695Z,101575.94
2019-03-30T10:57:14.773Z,101571.64
2019-03-30T10:59:44.879Z,101559.59
2019-03-30T11:02:15.657Z,101562.62
2019-03-30T11:04:45.718Z,101557.48
2019-03-30T11:07:15.827Z,101551.87
2019-03-30T11:09:49.333Z,101547.58
2019-03-30T11:12:18.899Z,101544.12
2019-03-30T11:14:48.973Z,101536.78
2019-03-30T11:17:19.571Z,101542.81
2019-03-30T11:19:49.943Z,101532.05
2019-03-30T11:22:20.182Z,101528.59
2019-03-30T11:24:50.289Z,101528.14
2019-03-30T11:27:21.328Z,101521.67
2019-03-30T11:29:51.410Z,101523.38
2019-03-30T11:32:21.506Z,101524.66
2019-03-30T11:34:51.769Z,101525.55
2019-03-30T11:37:22.938Z,101518.63
2019-03-30T11:39:53.992Z,101513.88
2019-03-30T11:42:24.084Z,101505.24
2019-03-30T11:44:54.287Z,101502.62
2019-03-30T11:47:25.506Z,101505.23
2019-03-30T11:49:55.634Z,101496.61
2019-03-30T11:52:25.738Z,101495.31
2019-03-30T11:54:55.828Z,101491.00
2019-03-30T11:57:25.936Z,101492.66
2019-03-30T11:59:56.036Z,101484.84
2019-03-30T12:02:28.195Z,101471.40
2019-03-30T12:04:57.912Z,101469.21
2019-03-30T12:07:27.970Z,101470.91
2019-03-30T12:09:58.041Z,101463.16
2019-03-30T12:12:28.127Z,101457.05
2019-03-30T12:14:58.221Z,101453.73
2019-03-30T12:17:28.282Z,101454.92
2019-03-30T12:19:58.406Z,101456.52
2019-03-30T12:22:28.477Z,101459.89
2019-03-30T12:24:59.161Z,101452.55
2019-03-30T12:27:29.234Z,101442.27
2019-03-30T12:29:59.296Z,101450.81
2019-03-30T12:32:29.404Z,101437.90
2019-03-30T12:34:59.542Z,101440.06
2019-03-30T12:37:29.613Z,101427.10
2019-03-30T12:39:59.733Z,101431.46
2019-03-30T12:42:29.786Z,101423.72
2019-03-30T12:44:59.851Z,101420.70
2019-03-30T12:47:31.113Z,101423.84
2019-03-30T12:50:01.226Z,101422.55
2019-03-30T12:52:32.286Z,101410.33
2019-03-30T12:55:02.383Z,101413.79
2019-03-30T12:57:32.546Z,101409.23
2019-03-30T13:00:02.655Z,101409.47
2019-03-30T13:02:33.709Z,101408.18
2019-03-30T13:05:07.509Z,101405.88
2019-03-30T13:07:37.114Z,101405.83
2019-03-30T13:10:07.615Z,101395.42
2019-03-30T13:12:37.741Z,101398.38
2019-03-30T13:15:08.173Z,101398.83
2019-03-30T13:17:38.305Z,101391.05
2019-03-30T13:20:08.512Z,101384.61
2019-03-30T13:22:38.667Z,101398.11
2019-03-30T13:25:09.038Z,101388.88
2019-03-30T13:27:39.115Z,101384.22
2019-03-30T13:30:09.832Z,101389.89
2019-03-30T13:32:39.915Z,101381.15
2019-03-30T13:35:10.104Z,101382.35
2019-03-30T13:37:40.203Z,101374.57
2019-03-30T13:40:10.590Z,101374.52
2019-03-30T13:42:40.682Z,101365.82
2019-03-30T13:45:11.829Z,101363.22
2019-03-30T13:47:41.902Z,101363.60
2019-03-30T13:50:12.050Z,101360.62
2019-03-30T13:52:42.194Z,101359.27
2019-03-30T13:55:12.345Z,101356.51
2019-03-30T13:57:42.416Z,101349.14
2019-03-30T14:00:12.647Z,101353.86
2019-03-30T14:02:44.135Z,101353.22
2019-03-30T14:05:14.438Z,101352.56
2019-03-30T14:07:44.519Z,101350.82
2019-03-30T14:10:14.907Z,101355.07
2019-03-30T14:12:45.030Z,101340.31
2019-03-30T14:15:15.106Z,101337.64
2019-03-30T14:17:45.176Z,101336.99
2019-03-30T14:20:15.324Z,101339.02
2019-03-30T14:22:45.433Z,101341.06
2019-03-30T14:25:16.186Z,101347.53
2019-03-30T14:27:46.267Z,101345.82
2019-03-30T14:30:16.503Z,101345.98
2019-03-30T14:32:46.568Z,101333.72
2019-03-30T14:35:16.664Z,101336.91
2019-03-30T14:37:46.743Z,101342.48
2019-03-30T14:40:16.872Z,101335.52
2019-03-30T14:42:46.933Z,101335.91
2019-03-30T14:45:17.060Z,101335.25
2019-03-30T14:47:47.215Z,101333.34
2019-03-30T14:50:17.424Z,101329.63
2019-03-30T14:52:47.595Z,101330.30
2019-03-30T14:55:18.752Z,101330.66
2019-03-30T14:57:48.912Z,101327.95
2019-03-30T15:00:19.114Z,101334.48
2019-03-30T15:02:49.477Z,101332.64
2019-03-30T15:05:19.600Z,101265.55
2019-03-30T15:07:49.781Z,101335.60
2019-03-30T15:10:19.867Z,101338.26
2019-03-30T15:12:50.239Z,101330.31
2019-03-30T15:15:20.316Z,101332.37
2019-03-30T15:17:50.534Z,101332.11
2019-03-30T15:20:20.612Z,101332.60
2019-03-30T15:22:50.888Z,101334.15
2019-03-30T15:25:20.988Z,101327.36
2019-03-30T15:27:51.130Z,101336.86
2019-03-30T15:30:21.237Z,101328.80
2019-03-30T15:32:51.383Z,101336.43
2019-03-30T15:35:21.495Z,101336.44
2019-03-30T15:37:51.706Z,101330.53
2019-03-30T15:40:21.832Z,101330.27
2019-03-30T15:42:51.929Z,101337.75
2019-03-30T15:45:22.134Z,101334.80
2019-03-30T15:47:52.228Z,101338.75
2019-03-30T15:50:22.367Z,101332.44
2019-03-30T15:52:52.540Z,101336.22
2019-03-30T15:55:22.618Z,101339.84
2019-03-30T15:57:52.702Z,101340.03
2019-03-30T16:00:23.757Z,101336.96
2019-03-30T16:02:53.826Z,101341.64
2019-03-30T16:05:23.989Z,101334.20
2019-03-30T16:07:54.182Z,101328.97
2019-03-30T16:10:24.282Z,101339.37
2019-03-30T16:12:54.418Z,101334.55
2019-03-30T16:15:24.485Z,101331.59
2019-03-30T16:17:54.604Z,101331.39
2019-03-30T16:20:24.745Z,101337.00
2019-03-30T16:22:54.846Z,101334.63
2019-03-30T16:25:24.979Z,101342.39
2019-03-30T16:27:55.100Z,101338.69
2019-03-30T16:30:25.260Z,101343.37
2019-03-30T16:32:55.359Z,101338.58
2019-03-30T16:35:25.419Z,101337.17
2019-03-30T16:37:55.508Z,101345.37
2019-03-30T16:40:25.623Z,101334.07
2019-03-30T16:42:55.704Z,101334.89
2019-03-30T16:45:25.788Z,101337.56
2019-03-30T16:47:55.901Z,101345.88
2019-03-30T16:50:25.978Z,101331.64
2019-03-30T16:52:56.049Z,101337.33
2019-03-30T16:55:26.138Z,101328.33
2019-03-30T16:57:56.206Z,101332.64
2019-03-30T17:00:26.283Z,101329.59
2019-03-30T17:02:56.380Z,101323.98
2019-03-30T17:05:26.461Z,101329.19
2019-03-30T17:07:56.580Z,101325.74
2019-03-30T17:10:26.705Z,101321.49
2019-03-30T17:12:56.808Z,101323.28
2019-03-30T17:15:26.878Z,101321.95
2019-03-30T17:17:57.039Z,101328.39
2019-03-30T17:20:28.079Z,101323.21
2019-03-30T17:22:59.023Z,101325.41
2019-03-30T17:25:29.227Z,101328.39
2019-03-30T17:27:59.344Z,101325.43
2019-03-30T17:30:29.530Z,101323.27
2019-03-30T17:32:59.649Z,101326.75
2019-03-30T17:35:29.740Z,101328.53
2019-03-30T17:37:59.926Z,101325.96
2019-03-30T17:40:30.063Z,101326.80
2019-03-30T17:43:00.242Z,101329.00
2019-03-30T17:45:31.956Z,101332.88
2019-03-30T17:48:02.086Z,101336.36
2019-03-30T17:50:32.177Z,101335.05
2019-03-30T17:53:03.234Z,101337.23
2019-03-30T17:55:34.299Z,101334.67
2019-03-30T17:58:12.934Z,101338.99
2019-03-30T18:00:36.670Z,101339.02
2019-03-30T18:03:06.812Z,101339.41
2019-03-30T18:05:36.899Z,101333.42
2019-03-30T18:08:07.052Z,101337.30
2019-03-30T18:10:37.171Z,101342.05
2019-03-30T18:13:07.994Z,101342.91
2019-03-30T18:15:38.106Z,101329.11
2019-03-30T18:18:08.327Z,101345.89
2019-03-30T18:20:38.410Z,101354.52
2019-03-30T18:23:09.610Z,101353.23
2019-03-30T18:25:39.695Z,101361.02
2019-03-30T18:28:09.819Z,101365.34
2019-03-30T18:30:41.146Z,101367.06
2019-03-30T18:33:11.318Z,101365.75
2019-03-30T18:35:41.494Z,101371.36
2019-03-30T18:38:13.129Z,101373.94
2019-03-30T18:40:43.550Z,101376.50
2019-03-30T18:43:13.919Z,101378.16
2019-03-30T18:45:44.085Z,101376.84
2019-03-30T18:48:15.500Z,101378.55
2019-03-30T18:50:46.924Z,101387.98
2019-03-30T18:53:18.169Z,101352.19
2019-03-30T18:55:48.308Z,101378.85
2019-03-30T18:58:18.515Z,101397.33
2019-03-30T19:00:48.617Z,101398.16
2019-03-30T19:03:20.287Z,101398.14
2019-03-30T19:05:50.641Z,101397.23
2019-03-30T19:08:20.752Z,101400.64
2019-03-30T19:10:50.876Z,101400.20
2019-03-30T19:13:20.989Z,101403.56
2019-03-30T19:15:51.236Z,101402.21
2019-03-30T19:18:21.345Z,101405.58
2019-03-30T19:20:51.611Z,101405.48
2019-03-30T19:23:21.674Z,101400.72
2019-03-30T19:25:51.888Z,101400.66
2019-03-30T19:28:22.002Z,101403.61
2019-03-30T19:30:53.064Z,101401.89
2019-03-30T19:33:23.175Z,101396.67
2019-03-30T19:35:53.375Z,101403.11
2019-03-30T19:38:23.526Z,101405.64
2019-03-30T19:40:53.685Z,101406.90
2019-03-30T19:43:23.797Z,101413.27
2019-03-30T19:45:53.982Z,101422.94
2019-03-30T19:48:24.063Z,101418.95
2019-03-30T19:50:54.172Z,101424.05
2019-03-30T19:53:24.344Z,101424.00
2019-03-30T19:55:54.523Z,101431.23
2019-03-30T19:58:24.679Z,101427.87
2019-03-30T20:00:54.841Z,101440.36
2019-03-30T20:03:24.948Z,101440.04
2019-03-30T20:05:55.033Z,101439.64
2019-03-30T20:08:25.179Z,101445.66
2019-03-30T20:10:55.257Z,101440.11
2019-03-30T20:13:25.368Z,101446.98
2019-03-30T20:15:55.622Z,101446.15
2019-03-30T20:18:25.724Z,101444.86
2019-03-30T20:20:55.819Z,101453.02
2019-03-30T20:23:25.994Z,101447.86
2019-03-30T20:25:56.071Z,101451.30
2019-03-30T20:28:26.156Z,101453.00
2019-03-30T20:30:56.495Z,101454.73
2019-03-30T20:33:26.610Z,101455.59
2019-03-30T20:35:56.763Z,101459.91
2019-03-30T20:38:26.830Z,101455.57
2019-03-30T20:40:56.928Z,101459.04
2019-03-30T20:43:27.037Z,101453.87
2019-03-30T20:45:57.144Z,101456.81
2019-03-30T20:48:27.220Z,101463.25
2019-03-30T20:50:57.307Z,101461.89
2019-03-30T20:53:27.379Z,101463.59
2019-03-30T20:55:57.496Z,101473.31
2019-03-30T20:58:27.566Z,101464.20
2019-03-30T21:00:57.660Z,101466.61
2019-03-30T21:03:27.792Z,101465.20
2019-03-30T21:05:57.858Z,101470.16
2019-03-30T21:08:28.074Z,101469.56
2019-03-30T21:10:59.241Z,101473.23
2019-03-30T21:13:29.427Z,101466.33
2019-03-30T21:15:59.546Z,101469.38
2019-03-30T21:18:29.663Z,101472.78
2019-03-30T21:20:59.777Z,101474.48
2019-03-30T21:23:29.923Z,101471.47
2019-03-30T21:26:00.008Z,101470.09
2019-03-30T21:28:30.122Z,101389.66
2019-03-30T21:31:02.378Z,101467.39
2019-03-30T21:33:32.587Z,101469.05
2019-03-30T21:36:02.679Z,101473.36
2019-03-30T21:38:32.859Z,101470.44
2019-03-30T21:41:02.962Z,101470.76
2019-03-30T21:43:33.099Z,101468.40
2019-03-30T21:46:03.219Z,101470.55
2019-03-30T21:48:33.319Z,101475.66
2019-03-30T21:51:03.399Z,101475.17
2019-03-30T21:53:33.534Z,101476.73
2019-03-30T21:56:04.328Z,101473.26
2019-03-30T21:58:34.630Z,101473.70
2019-03-30T22:01:04.747Z,101416.11
2019-03-30T22:03:34.902Z,101485.45
2019-03-30T22:06:05.087Z,101480.73
2019-03-30T22:08:35.268Z,101491.91
2019-03-30T22:11:06.006Z,101487.84
2019-03-30T22:13:36.090Z,101489.12
2019-03-30T22:16:06.286Z,101486.55
2019-03-30T22:18:36.374Z,101485.61
2019-03-30T22:21:06.573Z,101485.52
2019-03-30T22:23:36.747Z,101487.89
2019-03-30T22:26:06.871Z,101487.31
2019-03-30T22:28:36.936Z,101490.63
2019-03-30T22:31:07.126Z,101487.69
2019-03-30T22:33:37.187Z,101488.56
2019-03-30T22:36:07.353Z,101485.99
2019-03-30T22:38:37.417Z,101488.06
2019-03-30T22:41:07.544Z,101485.38
2019-03-30T22:43:37.626Z,101486.45
2019-03-30T22:46:07.924Z,101488.42
2019-03-30T22:48:38.116Z,101482.83
2019-03-30T22:51:08.312Z,101481.64
2019-03-30T22:53:38.379Z,101488.02
2019-03-30T22:56:08.538Z,101488.79
2019-03-30T22:58:38.744Z,101493.88
2019-03-30T23:01:11.668Z,101497.31
2019-03-30T23:03:43.448Z,101493.92
2019-03-30T23:06:13.838Z,101492.73
2019-03-30T23:08:43.900Z,101493.14
2019-03-30T23:11:14.071Z,101495.24
2019-03-30T23:13:44.103Z,101500.39
2019-03-30T23:16:14.219Z,101491.01
2019-03-30T23:18:45.415Z,101488.03
2019-03-30T23:21:16.116Z,101492.80
2019-03-30T23:23:46.210Z,101483.86
2019-03-30T23:26:16.284Z,101492.05
2019-03-30T23:28:46.380Z,101489.81
2019-03-30T23:31:16.452Z,101495.94
2019-03-30T23:33:46.559Z,101489.89
2019-03-30T23:36:16.644Z,101489.57
2019-03-30T23:38:46.785Z,101498.16
2019-03-30T23:41:17.923Z,101491.78
2019-03-30T23:43:48.027Z,101499.48
2019-03-30T23:46:18.095Z,101490.87
2019-03-30T23:48:48.201Z,101489.23
2019-03-30T23:51:18.281Z,101492.52
2019-03-30T23:53:49.353Z,101493.80
2019-03-30T23:56:21.986Z,101497.97
2019-03-30T23:58:52.226Z,101491.19
